createdAt,value
2018-08-17T00:00:29.888Z,78.64
2018-08-17T00:02:58.380Z,78.87
2018-08-17T00:05:26.861Z,78.70
2018-08-17T00:07:55.367Z,78.61
2018-08-17T00:10:23.880Z,78.78
2018-08-17T00:12:52.344Z,79.21
2018-08-17T00:15:20.846Z,79.97
2018-08-17T00:17:49.333Z,80.22
2018-08-17T00:20:17.875Z,79.90
2018-08-17T00:22:46.335Z,80.04
2018-08-17T00:25:14.803Z,80.42
2018-08-17T00:27:43.300Z,79.86
2018-08-17T00:30:11.764Z,79.27
2018-08-17T00:32:40.300Z,79.86
2018-08-17T00:35:08.759Z,79.55
2018-08-17T00:37:37.239Z,80.50
2018-08-17T00:40:05.973Z,79.55
2018-08-17T00:42:34.900Z,80.03
2018-08-17T00:45:03.454Z,80.66
2018-08-17T00:47:31.934Z,80.37
2018-08-17T00:50:00.416Z,80.69
2018-08-17T00:52:28.924Z,80.86
2018-08-17T00:54:57.414Z,80.66
2018-08-17T00:57:25.906Z,80.71
2018-08-17T00:59:54.435Z,81.21
2018-08-17T01:02:22.904Z,81.25
2018-08-17T01:04:51.382Z,81.04
2018-08-17T01:07:19.879Z,80.90
2018-08-17T01:09:48.380Z,81.04
2018-08-17T01:12:16.874Z,81.13
2018-08-17T01:14:45.440Z,81.23
2018-08-17T01:17:13.955Z,81.25
2018-08-17T01:19:42.411Z,80.95
2018-08-17T01:22:10.949Z,80.69
2018-08-17T01:24:39.363Z,80.39
2018-08-17T01:27:07.833Z,81.06
2018-08-17T01:29:36.315Z,81.38
2018-08-17T01:32:04.767Z,80.88
2018-08-17T01:34:33.284Z,81.58
2018-08-17T01:37:01.772Z,81.03
2018-08-17T01:39:30.244Z,81.26
2018-08-17T01:41:58.710Z,81.15
2018-08-17T01:44:27.188Z,81.86
2018-08-17T01:46:55.645Z,82.02
2018-08-17T01:49:24.092Z,81.50
2018-08-17T01:51:52.714Z,81.53
2018-08-17T01:54:21.185Z,81.97
2018-08-17T01:56:49.667Z,81.65
2018-08-17T01:59:18.160Z,81.75
2018-08-17T02:01:46.632Z,81.55
2018-08-17T02:04:15.113Z,82.16
2018-08-17T02:06:43.601Z,81.48
2018-08-17T02:09:12.996Z,82.09
2018-08-17T02:11:42.016Z,82.45
2018-08-17T02:14:10.504Z,82.45
2018-08-17T02:16:39.489Z,82.41
2018-08-17T02:19:07.959Z,81.54
2018-08-17T02:21:36.484Z,82.71
2018-08-17T02:24:04.964Z,82.11
2018-08-17T02:26:33.411Z,81.73
2018-08-17T02:29:01.876Z,81.25
2018-08-17T02:31:30.352Z,80.98
2018-08-17T02:33:58.833Z,81.62
2018-08-17T02:36:27.337Z,82.06
2018-08-17T02:38:55.784Z,82.04
2018-08-17T02:41:24.245Z,82.45
2018-08-17T02:43:52.774Z,81.87
2018-08-17T02:46:21.257Z,81.71
2018-08-17T02:48:49.755Z,81.79
2018-08-17T02:51:18.254Z,81.56
2018-08-17T02:53:46.726Z,81.50
2018-08-17T02:56:15.216Z,81.48
2018-08-17T02:58:43.763Z,81.86
2018-08-17T03:01:12.308Z,82.21
2018-08-17T03:03:40.811Z,82.56
2018-08-17T03:06:09.295Z,81.80
2018-08-17T03:08:37.777Z,81.59
2018-08-17T03:11:06.370Z,81.64
2018-08-17T03:13:34.888Z,82.04
2018-08-17T03:16:03.436Z,82.59
2018-08-17T03:18:32.004Z,82.53
2018-08-17T03:21:00.496Z,82.26
2018-08-17T03:23:28.994Z,82.37
2018-08-17T03:25:57.462Z,82.47
2018-08-17T03:28:25.968Z,82.72
2018-08-17T03:30:54.520Z,82.57
2018-08-17T03:33:23.000Z,82.13
2018-08-17T03:35:51.555Z,81.67
2018-08-17T03:38:20.088Z,82.22
2018-08-17T03:40:48.589Z,82.13
2018-08-17T03:43:17.132Z,82.58
2018-08-17T03:45:45.723Z,82.48
2018-08-17T03:48:14.221Z,81.77
2018-08-17T03:50:42.721Z,81.63
2018-08-17T03:53:11.284Z,81.75
2018-08-17T03:55:39.755Z,82.08
2018-08-17T03:58:08.537Z,82.67
2018-08-17T04:00:37.101Z,82.78
2018-08-17T04:03:05.812Z,82.17
2018-08-17T04:05:34.336Z,82.18
2018-08-17T04:08:02.839Z,82.81
2018-08-17T04:10:31.380Z,83.26
2018-08-17T04:12:59.902Z,83.03
2018-08-17T04:15:28.467Z,83.13
2018-08-17T04:17:56.968Z,83.20
2018-08-17T04:20:25.471Z,82.92
2018-08-17T04:22:54.305Z,83.44
2018-08-17T04:25:22.781Z,83.25
2018-08-17T04:27:51.539Z,83.17
2018-08-17T04:30:20.067Z,83.41
2018-08-17T04:32:48.544Z,83.46
2018-08-17T04:35:17.086Z,83.87
2018-08-17T04:37:45.625Z,83.93
2018-08-17T04:40:14.124Z,83.17
2018-08-17T04:42:42.755Z,83.58
2018-08-17T04:45:11.274Z,84.07
2018-08-17T04:47:39.760Z,83.41
2018-08-17T04:50:09.276Z,84.05
2018-08-17T04:52:38.260Z,84.26
2018-08-17T04:55:07.277Z,83.85
2018-08-17T04:57:35.937Z,84.59
2018-08-17T05:00:06.448Z,84.39
2018-08-17T05:02:35.168Z,84.32
2018-08-17T05:05:03.760Z,84.06
2018-08-17T05:07:32.311Z,83.59
2018-08-17T05:10:00.820Z,83.62
2018-08-17T05:12:29.324Z,83.46
2018-08-17T05:14:57.919Z,83.37
2018-08-17T05:17:26.472Z,83.67
2018-08-17T05:19:55.004Z,83.20
2018-08-17T05:22:23.590Z,83.50
2018-08-17T05:24:52.173Z,83.26
2018-08-17T05:27:20.823Z,83.09
2018-08-17T05:29:49.328Z,82.83
2018-08-17T05:32:17.801Z,82.95
2018-08-17T05:34:46.367Z,83.09
2018-08-17T05:37:14.946Z,82.30
2018-08-17T05:39:43.478Z,83.21
2018-08-17T05:42:12.052Z,83.14
2018-08-17T05:44:40.731Z,83.76
2018-08-17T05:47:09.232Z,82.99
2018-08-17T05:49:37.712Z,82.70
2018-08-17T05:52:06.544Z,82.66
2018-08-17T05:54:35.166Z,82.93
2018-08-17T05:57:03.732Z,83.12
2018-08-17T05:59:32.371Z,82.81
2018-08-17T06:02:00.900Z,83.63
2018-08-17T06:04:29.513Z,83.49
2018-08-17T06:06:58.125Z,83.53
2018-08-17T06:09:26.624Z,82.82
2018-08-17T06:11:55.083Z,83.24
2018-08-17T06:14:23.544Z,82.91
2018-08-17T06:16:52.055Z,82.87
2018-08-17T06:19:20.598Z,83.01
2018-08-17T06:21:49.124Z,82.68
2018-08-17T06:24:17.746Z,82.33
2018-08-17T06:26:46.283Z,82.81
2018-08-17T06:29:14.743Z,81.78
2018-08-17T06:31:43.360Z,82.17
2018-08-17T06:34:12.034Z,82.21
2018-08-17T06:36:40.524Z,81.82
2018-08-17T06:39:10.861Z,82.23
2018-08-17T06:41:39.401Z,82.40
2018-08-17T06:44:08.007Z,82.04
2018-08-17T06:46:36.655Z,81.61
2018-08-17T06:49:05.171Z,81.79
2018-08-17T06:51:33.624Z,80.97
2018-08-17T06:54:02.112Z,80.25
2018-08-17T06:56:30.569Z,79.95
2018-08-17T06:58:59.100Z,79.96
2018-08-17T07:01:27.588Z,79.75
2018-08-17T07:03:56.202Z,79.96
2018-08-17T07:06:24.734Z,79.61
2018-08-17T07:08:53.395Z,79.60
2018-08-17T07:11:22.085Z,79.55
2018-08-17T07:13:50.595Z,79.21
2018-08-17T07:16:19.392Z,78.87
2018-08-17T07:18:47.878Z,78.32
2018-08-17T07:21:16.452Z,78.12
2018-08-17T07:23:44.974Z,77.98
2018-08-17T07:26:13.492Z,77.99
2018-08-17T07:28:41.976Z,77.97
2018-08-17T07:31:10.493Z,77.74
2018-08-17T07:33:39.000Z,77.37
2018-08-17T07:36:07.503Z,76.80
2018-08-17T07:38:36.037Z,75.24
2018-08-17T07:41:04.555Z,74.24
2018-08-17T07:43:33.073Z,72.66
2018-08-17T07:46:01.547Z,72.01
2018-08-17T07:48:30.040Z,71.04
2018-08-17T07:50:58.648Z,70.27
2018-08-17T07:53:27.113Z,70.45
2018-08-17T07:55:55.589Z,70.46
2018-08-17T07:58:24.171Z,69.52
2018-08-17T08:00:52.794Z,69.02
2018-08-17T08:03:21.289Z,67.63
2018-08-17T08:05:49.808Z,67.73
2018-08-17T08:08:18.300Z,67.69
2018-08-17T08:10:46.779Z,68.64
2018-08-17T08:13:15.312Z,67.88
2018-08-17T08:15:43.804Z,63.93
2018-08-17T08:18:12.295Z,64.78
2018-08-17T08:20:43.008Z,65.84
2018-08-17T08:23:22.768Z,66.66
2018-08-17T08:25:51.336Z,67.35
2018-08-17T08:28:20.056Z,67.88
2018-08-17T08:30:48.856Z,68.02
2018-08-17T08:33:17.714Z,67.72
2018-08-17T08:35:46.600Z,67.98
2018-08-17T08:38:15.065Z,67.46
2018-08-17T08:40:43.608Z,67.66
2018-08-17T08:43:12.107Z,68.23
2018-08-17T08:45:40.822Z,67.69
2018-08-17T08:48:09.743Z,67.21
2018-08-17T08:50:38.736Z,68.10
2018-08-17T08:53:07.672Z,68.99
2018-08-17T08:55:36.201Z,69.46
2018-08-17T08:58:05.011Z,69.42
2018-08-17T09:00:33.574Z,69.10
2018-08-17T09:03:02.230Z,69.10
2018-08-17T09:05:30.709Z,68.39
2018-08-17T09:07:59.204Z,70.04
2018-08-17T09:10:27.700Z,73.60
2018-08-17T09:12:56.272Z,75.58
2018-08-17T09:15:24.787Z,76.74
2018-08-17T09:17:53.321Z,78.96
2018-08-17T09:20:21.922Z,78.26
2018-08-17T09:22:50.491Z,78.79
2018-08-17T09:25:19.208Z,78.07
2018-08-17T09:27:47.780Z,78.76
2018-08-17T09:30:16.357Z,79.40
2018-08-17T09:32:44.962Z,79.04
2018-08-17T09:35:14.134Z,78.92
2018-08-17T09:37:42.603Z,78.35
2018-08-17T09:40:11.736Z,77.61
2018-08-17T09:42:40.265Z,77.29
2018-08-17T09:45:10.950Z,76.37
2018-08-17T09:47:39.467Z,74.74
2018-08-17T09:50:11.276Z,75.84
2018-08-17T09:52:40.096Z,77.23
2018-08-17T09:55:08.644Z,77.09
2018-08-17T09:57:37.172Z,75.70
2018-08-17T10:00:07.068Z,77.39
2018-08-17T10:02:40.862Z,75.35
2018-08-17T10:05:14.657Z,75.02
2018-08-17T10:07:48.399Z,76.56
2018-08-17T10:10:25.688Z,76.81
2018-08-17T10:12:54.264Z,77.14
2018-08-17T10:15:23.814Z,77.72
2018-08-17T10:17:52.337Z,77.89
2018-08-17T10:20:21.907Z,78.05
2018-08-17T10:22:50.371Z,78.61
2018-08-17T10:25:23.138Z,78.69
2018-08-17T10:27:53.716Z,79.05
2018-08-17T10:30:23.160Z,79.93
2018-08-17T10:32:53.560Z,80.37
2018-08-17T10:35:27.268Z,80.57
2018-08-17T10:37:58.835Z,79.94
2018-08-17T10:40:27.783Z,79.03
2018-08-17T10:42:56.550Z,78.75
2018-08-17T10:45:26.383Z,79.58
2018-08-17T10:47:55.435Z,79.36
2018-08-17T10:50:26.020Z,79.12
2018-08-17T10:52:55.828Z,80.41
2018-08-17T10:55:35.800Z,79.82
2018-08-17T10:58:04.840Z,79.23
2018-08-17T11:00:33.339Z,79.73
2018-08-17T11:03:01.817Z,77.94
2018-08-17T11:05:30.717Z,77.95
2018-08-17T11:07:59.253Z,77.25
2018-08-17T11:10:27.736Z,77.21
2018-08-17T11:12:56.559Z,77.89
2018-08-17T11:15:25.075Z,77.90
2018-08-17T11:17:53.555Z,76.69
2018-08-17T11:20:22.175Z,75.08
2018-08-17T11:22:51.098Z,74.24
2018-08-17T11:25:19.683Z,73.69
2018-08-17T11:27:49.628Z,74.15
2018-08-17T11:30:18.264Z,74.68
2018-08-17T11:32:46.760Z,74.14
2018-08-17T11:35:15.354Z,74.02
2018-08-17T11:37:43.936Z,73.14
2018-08-17T11:40:13.276Z,73.56
2018-08-17T11:42:44.302Z,74.42
2018-08-17T11:45:15.292Z,73.06
2018-08-17T11:47:44.404Z,73.86
2018-08-17T11:50:14.283Z,73.87
2018-08-17T11:52:59.094Z,72.27
2018-08-17T11:55:29.408Z,72.09
2018-08-17T11:57:58.030Z,72.84
2018-08-17T12:00:26.886Z,73.30
2018-08-17T12:02:55.376Z,73.34
2018-08-17T12:05:23.857Z,74.22
2018-08-17T12:07:52.355Z,73.02
2018-08-17T12:10:20.937Z,71.46
2018-08-17T12:12:49.445Z,69.10
2018-08-17T12:15:18.099Z,69.96
2018-08-17T12:17:46.620Z,68.12
2018-08-17T12:20:15.088Z,68.70
2018-08-17T12:22:43.644Z,69.53
2018-08-17T12:25:12.173Z,68.54
2018-08-17T12:27:46.628Z,68.57
2018-08-17T12:30:15.185Z,68.45
2018-08-17T12:32:43.687Z,68.75
2018-08-17T12:35:12.213Z,67.96
2018-08-17T12:37:40.728Z,67.70
2018-08-17T12:40:09.350Z,68.68
2018-08-17T12:42:38.746Z,69.15
2018-08-17T12:45:12.404Z,69.00
2018-08-17T12:47:40.931Z,69.01
2018-08-17T12:50:09.731Z,68.23
2018-08-17T12:52:38.237Z,68.53
2018-08-17T12:55:06.792Z,66.43
2018-08-17T12:57:41.137Z,66.47
2018-08-17T13:00:10.040Z,64.49
2018-08-17T13:02:38.540Z,64.81
2018-08-17T13:05:07.108Z,65.61
2018-08-17T13:07:35.619Z,66.68
2018-08-17T13:10:04.255Z,65.01
2018-08-17T13:12:32.802Z,65.56
2018-08-17T13:15:01.387Z,66.67
2018-08-17T13:17:38.032Z,66.53
2018-08-17T13:20:07.017Z,65.15
2018-08-17T13:22:35.735Z,65.90
2018-08-17T13:25:04.868Z,64.27
2018-08-17T13:27:33.483Z,63.97
2018-08-17T13:30:01.956Z,62.59
2018-08-17T13:32:30.512Z,63.19
2018-08-17T13:34:59.067Z,64.69
2018-08-17T13:37:27.596Z,64.63
2018-08-17T13:39:56.164Z,65.80
2018-08-17T13:42:24.699Z,65.37
2018-08-17T13:44:53.316Z,66.54
2018-08-17T13:47:21.797Z,66.30
2018-08-17T13:49:50.303Z,67.21
2018-08-17T13:52:18.858Z,65.85
2018-08-17T13:54:47.356Z,65.99
2018-08-17T13:57:15.872Z,65.31
2018-08-17T13:59:44.490Z,65.01
2018-08-17T14:02:13.078Z,65.69
2018-08-17T14:04:41.639Z,66.71
2018-08-17T14:07:10.157Z,65.94
2018-08-17T14:09:38.836Z,66.89
2018-08-17T14:12:08.344Z,66.20
2018-08-17T14:14:36.854Z,65.92
2018-08-17T14:17:06.027Z,65.94
2018-08-17T14:19:34.608Z,65.74
2018-08-17T14:22:03.156Z,67.00
2018-08-17T14:24:31.632Z,66.41
2018-08-17T14:27:00.108Z,66.67
2018-08-17T14:29:28.608Z,65.57
2018-08-17T14:31:57.160Z,64.89
2018-08-17T14:34:25.808Z,63.73
2018-08-17T14:36:54.306Z,61.76
2018-08-17T14:39:22.863Z,62.92
2018-08-17T14:42:01.992Z,64.40
2018-08-17T14:44:30.863Z,63.31
2018-08-17T14:46:59.410Z,63.72
2018-08-17T14:49:27.974Z,63.62
2018-08-17T14:51:56.558Z,64.76
2018-08-17T14:54:25.059Z,63.66
2018-08-17T14:56:53.645Z,64.57
2018-08-17T14:59:22.808Z,63.68
2018-08-17T15:01:51.308Z,64.87
2018-08-17T15:04:19.820Z,63.92
2018-08-17T15:06:48.348Z,63.38
2018-08-17T15:09:16.951Z,63.49
2018-08-17T15:11:45.451Z,63.09
2018-08-17T15:14:14.686Z,62.47
2018-08-17T15:16:43.776Z,63.42
2018-08-17T15:19:12.441Z,62.04
2018-08-17T15:21:41.432Z,61.38
2018-08-17T15:24:10.561Z,61.27
2018-08-17T15:26:39.119Z,61.65
2018-08-17T15:29:07.634Z,62.24
2018-08-17T15:31:36.877Z,61.87
2018-08-17T15:34:06.772Z,61.89
2018-08-17T15:36:35.297Z,61.91
2018-08-17T15:41:47.416Z,63.77
2018-08-17T15:44:23.070Z,62.80
2018-08-17T15:46:52.147Z,60.62
2018-08-17T15:49:33.452Z,60.31
2018-08-17T15:52:03.116Z,57.55
2018-08-17T15:54:32.397Z,57.31
2018-08-17T15:57:03.722Z,57.63
2018-08-17T15:59:43.516Z,57.16
2018-08-17T16:02:12.025Z,57.77
2018-08-17T16:04:40.591Z,57.70
2018-08-17T16:07:09.282Z,57.85
2018-08-17T16:09:37.744Z,58.40
2018-08-17T16:12:06.823Z,57.69
2018-08-17T16:14:35.725Z,55.58
2018-08-17T16:17:04.272Z,57.57
2018-08-17T16:19:32.794Z,57.05
2018-08-17T16:22:01.711Z,54.92
2018-08-17T16:24:30.188Z,57.17
2018-08-17T16:26:59.309Z,57.69
2018-08-17T16:29:28.226Z,57.93
2018-08-17T16:31:57.536Z,57.83
2018-08-17T16:34:27.477Z,56.86
2018-08-17T16:36:56.576Z,57.37
2018-08-17T16:39:27.007Z,57.33
2018-08-17T16:41:59.838Z,58.15
2018-08-17T16:44:28.352Z,56.79
2018-08-17T16:46:56.857Z,56.82
2018-08-17T16:49:25.409Z,56.65
2018-08-17T16:51:54.102Z,58.45
2018-08-17T16:54:22.611Z,59.00
2018-08-17T16:56:51.147Z,59.46
2018-08-17T16:59:19.725Z,59.38
2018-08-17T17:01:48.252Z,58.28
2018-08-17T17:04:16.800Z,58.66
2018-08-17T17:06:45.336Z,58.41
2018-08-17T17:09:13.852Z,58.49
2018-08-17T17:11:42.511Z,55.29
2018-08-17T17:14:11.561Z,57.15
2018-08-17T17:16:45.501Z,56.67
2018-08-17T17:19:17.659Z,55.20
2018-08-17T17:21:47.296Z,55.52
2018-08-17T17:24:18.324Z,56.50
2018-08-17T17:26:47.249Z,57.06
2018-08-17T17:29:17.516Z,56.05
2018-08-17T17:31:49.352Z,54.21
2018-08-17T17:34:17.964Z,53.97
2018-08-17T17:36:46.475Z,54.91
2018-08-17T17:39:16.899Z,55.39
2018-08-17T17:41:45.860Z,55.88
2018-08-17T17:44:14.889Z,56.36
2018-08-17T17:46:43.372Z,57.66
2018-08-17T17:49:13.204Z,57.34
2018-08-17T17:51:42.204Z,52.66
2018-08-17T17:54:11.065Z,54.89
2018-08-17T17:56:39.517Z,52.82
2018-08-17T17:59:13.475Z,52.42
2018-08-17T18:01:41.946Z,53.85
2018-08-17T18:04:10.460Z,54.45
2018-08-17T18:06:38.971Z,54.25
2018-08-17T18:09:07.578Z,54.61
2018-08-17T18:11:36.164Z,56.19
2018-08-17T18:14:04.717Z,57.61
2018-08-17T18:16:33.192Z,55.92
2018-08-17T18:19:01.650Z,56.38
2018-08-17T18:21:32.855Z,56.30
2018-08-17T18:24:06.756Z,57.43
2018-08-17T18:26:35.586Z,58.35
2018-08-17T18:29:04.129Z,58.89
2018-08-17T18:31:32.636Z,59.33
2018-08-17T18:34:01.205Z,59.39
2018-08-17T18:36:29.744Z,59.74
2018-08-17T18:38:58.235Z,59.57
2018-08-17T18:41:26.730Z,60.59
2018-08-17T18:43:55.214Z,60.48
2018-08-17T18:46:23.707Z,59.74
2018-08-17T18:48:52.289Z,60.57
2018-08-17T18:51:20.864Z,60.93
2018-08-17T18:53:49.492Z,62.21
2018-08-17T18:56:17.956Z,60.01
2018-08-17T18:58:46.754Z,60.18
2018-08-17T19:01:15.297Z,59.97
2018-08-17T19:03:43.792Z,60.53
2018-08-17T19:06:12.283Z,60.39
2018-08-17T19:08:41.087Z,61.50
2018-08-17T19:11:09.648Z,61.52
2018-08-17T19:13:38.112Z,62.58
2018-08-17T19:16:06.722Z,63.15
2018-08-17T19:18:35.163Z,63.99
2018-08-17T19:21:08.548Z,64.36
2018-08-17T19:23:37.507Z,65.67
2018-08-17T19:26:06.719Z,65.80
2018-08-17T19:28:35.359Z,65.88
2018-08-17T19:31:03.887Z,66.51
2018-08-17T19:33:32.408Z,67.35
2018-08-17T19:36:01.089Z,67.04
2018-08-17T19:38:29.651Z,66.78
2018-08-17T19:40:58.183Z,67.25
2018-08-17T19:43:26.730Z,67.33
2018-08-17T19:45:55.195Z,67.95
2018-08-17T19:48:23.816Z,68.68
2018-08-17T19:50:52.369Z,69.87
2018-08-17T19:53:20.843Z,70.23
2018-08-17T19:55:49.292Z,69.86
2018-08-17T19:58:17.821Z,70.20
2018-08-17T20:00:46.223Z,70.67
2018-08-17T20:03:14.739Z,70.67
2018-08-17T20:05:43.245Z,71.21
2018-08-17T20:08:11.749Z,70.98
2018-08-17T20:10:42.416Z,71.86
2018-08-17T20:13:11.018Z,72.17
2018-08-17T20:15:39.516Z,71.54
2018-08-17T20:18:08.036Z,71.51
2018-08-17T20:20:36.616Z,72.48
2018-08-17T20:23:05.131Z,72.64
2018-08-17T20:25:33.690Z,73.51
2018-08-17T20:28:02.168Z,73.38
2018-08-17T20:30:30.723Z,72.97
2018-08-17T20:32:59.301Z,73.40
2018-08-17T20:35:27.925Z,73.99
2018-08-17T20:37:56.501Z,73.84
2018-08-17T20:40:25.024Z,74.32
2018-08-17T20:42:53.715Z,74.58
2018-08-17T20:45:25.772Z,74.74
2018-08-17T20:47:54.472Z,75.10
2018-08-17T20:50:22.950Z,74.74
2018-08-17T20:52:58.517Z,75.16
2018-08-17T20:55:27.387Z,75.33
2018-08-17T20:57:56.829Z,74.65
2018-08-17T21:00:26.887Z,75.82
2018-08-17T21:02:55.623Z,76.19
2018-08-17T21:05:24.181Z,76.59
2018-08-17T21:07:52.796Z,76.02
2018-08-17T21:10:21.340Z,76.18
2018-08-17T21:12:50.137Z,76.28
2018-08-17T21:15:19.096Z,76.77
2018-08-17T21:17:48.274Z,76.74
2018-08-17T21:20:20.582Z,76.59
2018-08-17T21:22:49.161Z,76.55
2018-08-17T21:25:18.016Z,76.69
2018-08-17T21:27:46.853Z,77.17
2018-08-17T21:30:15.457Z,76.98
2018-08-17T21:32:43.940Z,77.06
2018-08-17T21:35:12.568Z,76.29
2018-08-17T21:37:41.265Z,76.03
2018-08-17T21:40:16.328Z,76.61
2018-08-17T21:42:44.972Z,76.54
2018-08-17T21:45:13.456Z,77.38
2018-08-17T21:47:42.015Z,78.08
2018-08-17T21:50:13.822Z,78.64
2018-08-17T21:52:43.340Z,78.95
2018-08-17T21:55:11.811Z,79.21
2018-08-17T21:57:40.363Z,78.70
2018-08-17T22:00:13.992Z,78.59
2018-08-17T22:02:42.499Z,79.15
2018-08-17T22:05:15.399Z,78.89
2018-08-17T22:25:00.796Z,79.34
2018-08-17T22:27:29.829Z,79.60
2018-08-17T22:29:59.261Z,79.33
2018-08-17T22:32:27.837Z,79.37
2018-08-17T22:34:56.408Z,79.51
2018-08-17T22:37:24.913Z,79.55
2018-08-17T22:39:53.468Z,79.49
2018-08-17T22:42:22.998Z,79.38
2018-08-17T22:44:52.019Z,79.33
2018-08-17T22:47:28.402Z,79.46
2018-08-17T22:49:58.089Z,79.83
2018-08-17T22:52:26.745Z,80.30
2018-08-17T22:55:01.617Z,80.60
2018-08-17T22:57:30.847Z,80.74
2018-08-17T23:00:21.143Z,80.85
2018-08-17T23:02:51.036Z,81.10
2018-08-17T23:05:22.000Z,80.79
2018-08-17T23:07:50.559Z,80.78
2018-08-17T23:10:20.409Z,80.65
2018-08-17T23:12:50.130Z,80.59
2018-08-17T23:15:18.748Z,80.10
2018-08-17T23:17:51.491Z,79.97
2018-08-17T23:20:25.238Z,79.61
2018-08-17T23:22:55.722Z,79.37
2018-08-17T23:25:24.357Z,80.30
2018-08-17T23:27:53.278Z,80.69
2018-08-17T23:30:21.853Z,80.47
2018-08-17T23:32:50.431Z,80.69
2018-08-17T23:35:18.885Z,81.11
2018-08-17T23:37:47.429Z,80.67
2018-08-17T23:40:15.921Z,80.12
2018-08-17T23:42:44.821Z,80.21
2018-08-17T23:45:14.991Z,79.62
2018-08-17T23:47:43.633Z,80.43
2018-08-17T23:50:13.243Z,80.74
2018-08-17T23:52:41.975Z,81.12
2018-08-17T23:55:13.186Z,81.66
2018-08-17T23:57:41.930Z,82.11
